CMP477 KDEN-MPTO
Flight info
| Callsign | CMP477 |
|---|---|
| Flight time | N/A |
| Altitude | 33000 |
| Route | EPKEE7 DUUZE DCT ADM DCT LFK/N0451F350 DCT WAHOO DCT KEHLI UA766 SIGMA UM205 TEKUG DCT SPP DCT MORLI OSUPA2C |
| Aircraft | B738/M-SDE2E3FGHIRWXY/LB1 |
Departure
| Time | N/A |
|---|---|
| Airport | Denver International Airport (KDEN) |
Arrival
| Time | 2026-05-06 00:00 |
|---|---|
| Airport | Tocumen International Airport (MPTO) |
| Time | Latitude | Longitude | Altitude | Speed | Heading |
|---|---|---|---|---|---|
| 2026-05-05 20:32 | 30.18264 | -93.96592 | 34906 ft | 491 kts | 155° |
| 2026-05-05 20:33 | 30.12546 | -93.92263 | 34921 ft | 491 kts | 155° |
| 2026-05-05 20:33 | 30.06819 | -93.87934 | 34923 ft | 491 kts | 155° |
| 2026-05-05 20:34 | 30.01098 | -93.83614 | 34924 ft | 492 kts | 155° |
| 2026-05-05 20:34 | 29.95395 | -93.79315 | 34920 ft | 492 kts | 155° |
| 2026-05-05 20:35 | 29.89668 | -93.75004 | 34920 ft | 492 kts | 155° |
| 2026-05-05 20:35 | 29.83938 | -93.70695 | 34911 ft | 492 kts | 155° |
| 2026-05-05 20:36 | 29.78203 | -93.66390 | 34915 ft | 492 kts | 155° |
| 2026-05-05 20:36 | 29.72466 | -93.62088 | 34909 ft | 492 kts | 155° |
| 2026-05-05 20:37 | 29.66731 | -93.57794 | 34908 ft | 492 kts | 155° |
| 2026-05-05 20:37 | 29.60993 | -93.53505 | 34901 ft | 492 kts | 155° |
| 2026-05-05 20:38 | 29.55256 | -93.49221 | 34910 ft | 491 kts | 155° |
| 2026-05-05 20:38 | 29.49585 | -93.44992 | 34913 ft | 491 kts | 155° |
| 2026-05-05 20:39 | 29.43850 | -93.40723 | 34908 ft | 491 kts | 155° |
| 2026-05-05 20:39 | 29.38117 | -93.36460 | 34908 ft | 491 kts | 155° |
| 2026-05-05 20:40 | 29.32426 | -93.32233 | 34909 ft | 490 kts | 155° |
| 2026-05-05 20:40 | 29.26730 | -93.28009 | 34912 ft | 490 kts | 155° |
| 2026-05-05 20:41 | 29.20996 | -93.23763 | 34911 ft | 490 kts | 155° |
| 2026-05-05 20:41 | 29.15267 | -93.19526 | 34912 ft | 490 kts | 154° |
| 2026-05-05 20:42 | 29.09538 | -93.15295 | 34909 ft | 490 kts | 154° |
| 2026-05-05 20:42 | 29.03809 | -93.11070 | 34914 ft | 490 kts | 154° |
| 2026-05-05 20:43 | 28.98074 | -93.06845 | 34910 ft | 490 kts | 154° |
| 2026-05-05 20:43 | 28.92344 | -93.02630 | 34918 ft | 490 kts | 154° |
| 2026-05-05 20:44 | 28.86640 | -92.98440 | 34912 ft | 490 kts | 154° |
| 2026-05-05 20:44 | 28.80896 | -92.94225 | 34912 ft | 490 kts | 154° |
| 2026-05-05 20:45 | 28.72287 | -92.87920 | 34915 ft | 491 kts | 154° |
| 2026-05-05 20:45 | 28.66538 | -92.83716 | 34916 ft | 491 kts | 154° |
| 2026-05-05 20:46 | 28.60792 | -92.79520 | 34920 ft | 491 kts | 154° |
| 2026-05-05 20:46 | 28.55043 | -92.75326 | 34919 ft | 491 kts | 154° |
| 2026-05-05 20:47 | 28.49295 | -92.71140 | 34922 ft | 491 kts | 154° |
| 2026-05-05 20:47 | 28.43547 | -92.66959 | 34924 ft | 491 kts | 154° |
| 2026-05-05 20:48 | 28.37791 | -92.62777 | 34921 ft | 490 kts | 154° |
| 2026-05-05 20:48 | 28.32046 | -92.58607 | 34921 ft | 490 kts | 154° |
| 2026-05-05 20:49 | 28.26304 | -92.54445 | 34925 ft | 490 kts | 154° |
| 2026-05-05 20:49 | 28.20617 | -92.50280 | 34926 ft | 490 kts | 153° |
| 2026-05-05 20:50 | 28.15845 | -92.46721 | 34922 ft | 490 kts | 153° |
| 2026-05-05 20:50 | 28.09223 | -92.41777 | 34925 ft | 490 kts | 153° |
| 2026-05-05 20:51 | 28.03528 | -92.37542 | 34930 ft | 491 kts | 153° |
| 2026-05-05 20:51 | 27.97769 | -92.33276 | 34933 ft | 497 kts | 153° |
| 2026-05-05 20:52 | 27.92972 | -92.29724 | 34911 ft | 493 kts | 153° |
| 2026-05-05 20:52 | 27.87259 | -92.25493 | 34918 ft | 487 kts | 153° |
| 2026-05-05 20:53 | 27.81598 | -92.21311 | 34921 ft | 485 kts | 153° |
| 2026-05-05 20:53 | 27.75958 | -92.17152 | 34921 ft | 483 kts | 153° |
| 2026-05-05 20:54 | 27.70330 | -92.13007 | 34928 ft | 482 kts | 153° |
| 2026-05-05 20:54 | 27.64743 | -92.08898 | 34935 ft | 483 kts | 152° |
| 2026-05-05 20:55 | 27.59105 | -92.04756 | 34931 ft | 484 kts | 152° |
| 2026-05-05 20:55 | 27.53455 | -92.00610 | 34934 ft | 486 kts | 152° |
| 2026-05-05 20:56 | 27.47773 | -91.96445 | 34935 ft | 488 kts | 152° |
| 2026-05-05 20:56 | 27.42076 | -91.92274 | 34935 ft | 489 kts | 152° |
| 2026-05-05 20:57 | 27.36612 | -91.88278 | 34936 ft | 491 kts | 152° |
| 2026-05-05 20:57 | 27.30897 | -91.84103 | 34935 ft | 491 kts | 152° |
| 2026-05-05 20:58 | 27.25161 | -91.79918 | 34938 ft | 491 kts | 152° |
| 2026-05-05 20:58 | 27.19431 | -91.75743 | 34937 ft | 491 kts | 152° |
| 2026-05-05 20:59 | 27.13703 | -91.71575 | 34935 ft | 490 kts | 152° |
| 2026-05-05 20:59 | 27.07981 | -91.67417 | 34939 ft | 489 kts | 152° |
| 2026-05-05 21:00 | 27.02277 | -91.63276 | 34933 ft | 488 kts | 152° |
| 2026-05-05 21:00 | 26.96583 | -91.59149 | 34948 ft | 487 kts | 152° |
| 2026-05-05 21:01 | 26.90936 | -91.55060 | 34936 ft | 486 kts | 152° |
| 2026-05-05 21:01 | 26.85259 | -91.50954 | 34937 ft | 485 kts | 152° |
| 2026-05-05 21:02 | 26.79590 | -91.46860 | 34942 ft | 484 kts | 152° |
| 2026-05-05 21:02 | 26.73924 | -91.42773 | 34941 ft | 484 kts | 152° |
| 2026-05-05 21:03 | 26.68262 | -91.38693 | 34941 ft | 484 kts | 152° |
| 2026-05-05 21:03 | 26.62597 | -91.34616 | 34946 ft | 484 kts | 152° |
| 2026-05-05 21:04 | 26.56925 | -91.30539 | 34946 ft | 485 kts | 152° |
| 2026-05-05 21:04 | 26.51280 | -91.26486 | 34942 ft | 485 kts | 152° |
| 2026-05-05 21:05 | 26.45597 | -91.22411 | 34946 ft | 485 kts | 152° |
| 2026-05-05 21:05 | 26.39906 | -91.18334 | 34947 ft | 486 kts | 151° |
| 2026-05-05 21:06 | 26.34212 | -91.14261 | 34952 ft | 486 kts | 151° |
| 2026-05-05 21:06 | 26.28509 | -91.10186 | 34947 ft | 487 kts | 151° |
| 2026-05-05 21:07 | 26.22804 | -91.06114 | 34948 ft | 487 kts | 151° |
| 2026-05-05 21:07 | 26.17096 | -91.02044 | 34948 ft | 487 kts | 151° |
| 2026-05-05 21:08 | 26.11388 | -90.97980 | 34948 ft | 487 kts | 151° |
| 2026-05-05 21:08 | 26.05680 | -90.93920 | 34946 ft | 487 kts | 151° |
| 2026-05-05 21:09 | 25.99973 | -90.89866 | 34948 ft | 486 kts | 151° |
| 2026-05-05 21:09 | 25.94270 | -90.85820 | 34954 ft | 488 kts | 151° |
| 2026-05-05 21:10 | 25.88503 | -90.81736 | 34952 ft | 495 kts | 151° |
| 2026-05-05 21:10 | 25.82649 | -90.77593 | 34954 ft | 502 kts | 151° |
| 2026-05-05 21:11 | 25.76779 | -90.73442 | 34947 ft | 505 kts | 151° |
| 2026-05-05 21:11 | 25.70843 | -90.69248 | 34944 ft | 506 kts | 151° |
| 2026-05-05 21:12 | 25.64893 | -90.65050 | 34941 ft | 506 kts | 151° |
| 2026-05-05 21:12 | 25.58960 | -90.60869 | 34943 ft | 505 kts | 150° |
| 2026-05-05 21:13 | 25.53042 | -90.56704 | 34942 ft | 503 kts | 150° |
| 2026-05-05 21:13 | 25.47149 | -90.52562 | 34942 ft | 501 kts | 150° |
| 2026-05-05 21:14 | 25.41280 | -90.48442 | 34940 ft | 498 kts | 150° |
| 2026-05-05 21:14 | 25.35436 | -90.44344 | 34945 ft | 496 kts | 150° |
| 2026-05-05 21:15 | 25.29649 | -90.40291 | 34947 ft | 495 kts | 150° |
| 2026-05-05 21:15 | 25.23834 | -90.36223 | 34946 ft | 494 kts | 150° |
| 2026-05-05 21:16 | 25.18023 | -90.32163 | 34945 ft | 493 kts | 150° |
| 2026-05-05 21:16 | 25.12218 | -90.28112 | 34943 ft | 493 kts | 150° |
| 2026-05-05 21:17 | 25.06410 | -90.24063 | 34945 ft | 494 kts | 150° |
| 2026-05-05 21:17 | 25.00595 | -90.20013 | 34948 ft | 495 kts | 150° |
| 2026-05-05 21:18 | 24.94771 | -90.15962 | 34948 ft | 495 kts | 150° |
| 2026-05-05 21:18 | 24.88926 | -90.11900 | 34943 ft | 496 kts | 150° |
| 2026-05-05 21:19 | 24.83120 | -90.07871 | 34946 ft | 497 kts | 150° |
| 2026-05-05 21:19 | 24.78008 | -90.04327 | 34948 ft | 497 kts | 150° |
| 2026-05-05 21:20 | 24.72146 | -90.00267 | 34947 ft | 498 kts | 150° |
| 2026-05-05 21:20 | 24.66499 | -89.96359 | 34945 ft | 498 kts | 150° |
| 2026-05-05 21:21 | 24.60635 | -89.92306 | 34945 ft | 498 kts | 150° |
| 2026-05-05 21:21 | 24.54768 | -89.88255 | 34947 ft | 498 kts | 150° |
| 2026-05-05 21:22 | 24.48902 | -89.84210 | 34946 ft | 497 kts | 150° |
| 2026-05-05 21:22 | 24.43147 | -89.79996 | 34945 ft | 497 kts | 147° |
| 2026-05-05 21:23 | 24.37506 | -89.75622 | 34942 ft | 497 kts | 146° |
| 2026-05-05 21:23 | 24.31855 | -89.71267 | 34948 ft | 495 kts | 147° |
| 2026-05-05 21:24 | 24.26202 | -89.66963 | 34946 ft | 495 kts | 147° |
| 2026-05-05 21:24 | 24.20545 | -89.62676 | 34944 ft | 494 kts | 147° |
| 2026-05-05 21:25 | 24.14902 | -89.58404 | 34947 ft | 493 kts | 147° |
| 2026-05-05 21:25 | 24.09267 | -89.54139 | 34950 ft | 492 kts | 147° |
| 2026-05-05 21:26 | 24.03639 | -89.49883 | 34946 ft | 491 kts | 147° |
| 2026-05-05 21:26 | 23.98018 | -89.45636 | 34948 ft | 491 kts | 147° |
| 2026-05-05 21:27 | 23.92405 | -89.41400 | 34947 ft | 490 kts | 147° |
| 2026-05-05 21:27 | 23.86795 | -89.37160 | 34950 ft | 490 kts | 147° |
| 2026-05-05 21:28 | 23.81187 | -89.32920 | 34949 ft | 491 kts | 147° |
| 2026-05-05 21:28 | 23.75567 | -89.28676 | 34950 ft | 491 kts | 147° |
| 2026-05-05 21:29 | 23.69941 | -89.24433 | 34950 ft | 492 kts | 147° |
| 2026-05-05 21:29 | 23.64300 | -89.20183 | 34950 ft | 494 kts | 147° |
| 2026-05-05 21:30 | 23.58677 | -89.15950 | 34949 ft | 495 kts | 147° |
| 2026-05-05 21:30 | 23.52968 | -89.11657 | 34955 ft | 496 kts | 147° |
| 2026-05-05 21:31 | 23.47314 | -89.07414 | 34952 ft | 497 kts | 147° |
| 2026-05-05 21:31 | 23.41602 | -89.03144 | 34947 ft | 498 kts | 147° |
| 2026-05-05 21:32 | 23.35882 | -88.98875 | 34951 ft | 499 kts | 147° |
| 2026-05-05 21:32 | 23.30158 | -88.94603 | 34952 ft | 499 kts | 146° |
| 2026-05-05 21:33 | 23.24432 | -88.90333 | 34946 ft | 499 kts | 146° |
| 2026-05-05 21:33 | 23.18713 | -88.86073 | 34949 ft | 498 kts | 146° |
| 2026-05-05 21:34 | 23.12998 | -88.81820 | 34953 ft | 497 kts | 146° |
| 2026-05-05 21:34 | 23.07293 | -88.77580 | 34952 ft | 496 kts | 146° |
| 2026-05-05 21:35 | 23.01596 | -88.73355 | 34949 ft | 495 kts | 146° |
| 2026-05-05 21:35 | 22.95914 | -88.69147 | 34957 ft | 494 kts | 146° |
| 2026-05-05 21:36 | 22.90240 | -88.64946 | 34950 ft | 493 kts | 146° |
| 2026-05-05 21:36 | 22.84580 | -88.60759 | 34951 ft | 492 kts | 146° |
| 2026-05-05 21:37 | 22.78929 | -88.56583 | 34951 ft | 491 kts | 146° |
| 2026-05-05 21:37 | 22.73322 | -88.52449 | 34949 ft | 490 kts | 146° |
| 2026-05-05 21:38 | 22.67686 | -88.48301 | 34948 ft | 490 kts | 146° |
| 2026-05-05 21:38 | 22.62056 | -88.44149 | 34948 ft | 489 kts | 146° |
| 2026-05-05 21:39 | 22.56434 | -88.39997 | 34945 ft | 489 kts | 146° |
| 2026-05-05 21:39 | 22.51721 | -88.36522 | 34942 ft | 489 kts | 146° |
| 2026-05-05 21:40 | 22.46099 | -88.32380 | 34949 ft | 489 kts | 146° |
| 2026-05-05 21:40 | 22.40472 | -88.28236 | 34950 ft | 489 kts | 146° |
| 2026-05-05 21:41 | 22.34846 | -88.24098 | 34945 ft | 489 kts | 146° |
| 2026-05-05 21:41 | 22.29215 | -88.19960 | 34945 ft | 489 kts | 146° |
| 2026-05-05 21:42 | 22.23586 | -88.15826 | 34945 ft | 490 kts | 146° |
| 2026-05-05 21:42 | 22.18650 | -88.12205 | 34942 ft | 490 kts | 146° |
| 2026-05-05 21:43 | 22.13630 | -88.08534 | 34941 ft | 490 kts | 146° |
| 2026-05-05 21:43 | 22.07993 | -88.04423 | 34942 ft | 489 kts | 146° |
| 2026-05-05 21:44 | 22.02346 | -88.00307 | 34940 ft | 489 kts | 146° |
| 2026-05-05 21:44 | 21.96701 | -87.96194 | 34938 ft | 489 kts | 146° |
| 2026-05-05 21:45 | 21.91064 | -87.92091 | 34940 ft | 489 kts | 146° |
| 2026-05-05 21:45 | 21.85422 | -87.87987 | 34938 ft | 489 kts | 146° |
| 2026-05-05 21:46 | 21.79776 | -87.83884 | 34937 ft | 489 kts | 146° |
| 2026-05-05 21:46 | 21.76757 | -87.81692 | 34936 ft | 489 kts | 146° |
| 2026-05-05 21:47 | 21.71113 | -87.77601 | 34934 ft | 489 kts | 146° |
| 2026-05-05 21:47 | 21.65502 | -87.73536 | 34931 ft | 489 kts | 146° |
| 2026-05-05 21:48 | 21.59964 | -87.69526 | 34911 ft | 473 kts | 146° |
| 2026-05-05 21:48 | 21.54532 | -87.65595 | 34926 ft | 470 kts | 146° |
| 2026-05-05 21:49 | 21.49112 | -87.61677 | 34926 ft | 469 kts | 146° |
| 2026-05-05 21:49 | 21.43834 | -87.57866 | 34927 ft | 469 kts | 146° |
| 2026-05-05 21:50 | 21.38418 | -87.53956 | 34925 ft | 469 kts | 146° |
| 2026-05-05 21:50 | 21.32996 | -87.50043 | 34927 ft | 470 kts | 146° |
| 2026-05-05 21:51 | 21.27565 | -87.46127 | 34928 ft | 471 kts | 146° |
| 2026-05-05 21:51 | 21.22129 | -87.42211 | 34930 ft | 472 kts | 146° |
| 2026-05-05 21:52 | 21.13950 | -87.36326 | 34935 ft | 472 kts | 146° |
| 2026-05-05 21:53 | 21.08745 | -87.32584 | 34938 ft | 473 kts | 146° |
| 2026-05-05 21:53 | 21.03281 | -87.28660 | 34937 ft | 473 kts | 146° |
| 2026-05-05 21:54 | 20.97815 | -87.24737 | 34943 ft | 473 kts | 146° |
| 2026-05-05 21:54 | 20.92347 | -87.20819 | 34951 ft | 473 kts | 146° |
| 2026-05-05 21:55 | 20.87096 | -87.17076 | 34947 ft | 472 kts | 146° |
| 2026-05-05 21:55 | 20.82094 | -87.13514 | 34951 ft | 472 kts | 146° |
| 2026-05-05 21:56 | 20.76631 | -87.09625 | 34960 ft | 471 kts | 146° |
| 2026-05-05 21:56 | 20.71178 | -87.05745 | 34963 ft | 471 kts | 146° |
| 2026-05-05 21:57 | 20.65731 | -87.01872 | 34969 ft | 470 kts | 146° |
| 2026-05-05 21:57 | 20.60287 | -86.98005 | 34972 ft | 470 kts | 146° |
| 2026-05-05 21:58 | 20.54846 | -86.94142 | 34971 ft | 469 kts | 146° |
| 2026-05-05 21:58 | 20.49393 | -86.90323 | 34970 ft | 469 kts | 148° |
| 2026-05-05 21:59 | 20.43763 | -86.86810 | 34973 ft | 469 kts | 150° |
| 2026-05-05 21:59 | 20.38094 | -86.83379 | 34969 ft | 469 kts | 150° |
| 2026-05-05 22:00 | 20.33111 | -86.80327 | 34969 ft | 468 kts | 149° |
| 2026-05-05 22:00 | 20.27473 | -86.76846 | 34965 ft | 468 kts | 149° |
| 2026-05-05 22:01 | 20.21833 | -86.73362 | 34962 ft | 469 kts | 149° |
| 2026-05-05 22:01 | 20.16190 | -86.69881 | 34963 ft | 469 kts | 149° |
| 2026-05-05 22:02 | 20.10539 | -86.66414 | 34963 ft | 469 kts | 149° |
| 2026-05-05 22:02 | 20.04878 | -86.62964 | 34961 ft | 469 kts | 149° |
| 2026-05-05 22:03 | 19.99214 | -86.59514 | 34960 ft | 469 kts | 149° |
| 2026-05-05 22:03 | 19.93553 | -86.56065 | 34961 ft | 469 kts | 149° |
| 2026-05-05 22:04 | 19.87886 | -86.52614 | 34960 ft | 469 kts | 149° |
| 2026-05-05 22:04 | 19.82223 | -86.49167 | 34957 ft | 469 kts | 149° |
| 2026-05-05 22:05 | 19.76558 | -86.45722 | 34952 ft | 469 kts | 149° |
| 2026-05-05 22:05 | 19.70896 | -86.42283 | 34961 ft | 469 kts | 149° |
| 2026-05-05 22:06 | 19.65577 | -86.39053 | 34964 ft | 469 kts | 149° |
| 2026-05-05 22:06 | 19.59943 | -86.35574 | 34954 ft | 468 kts | 147° |
| 2026-05-05 22:07 | 19.54479 | -86.31824 | 34963 ft | 468 kts | 146° |
| 2026-05-05 22:07 | 19.49098 | -86.28026 | 34958 ft | 468 kts | 146° |
| 2026-05-05 22:08 | 19.44160 | -86.24569 | 34958 ft | 467 kts | 146° |
| 2026-05-05 22:08 | 19.38720 | -86.20795 | 34958 ft | 467 kts | 146° |
| 2026-05-05 22:09 | 19.33238 | -86.17008 | 34959 ft | 467 kts | 146° |
| 2026-05-05 22:09 | 19.27834 | -86.13280 | 34956 ft | 467 kts | 146° |
| 2026-05-05 22:10 | 19.22389 | -86.09526 | 34955 ft | 467 kts | 146° |
| 2026-05-05 22:10 | 19.16947 | -86.05776 | 34956 ft | 467 kts | 146° |
| 2026-05-05 22:11 | 19.11500 | -86.02024 | 34954 ft | 467 kts | 146° |
| 2026-05-05 22:11 | 19.06054 | -85.98277 | 34955 ft | 467 kts | 146° |
| 2026-05-05 22:12 | 19.00606 | -85.94532 | 34957 ft | 467 kts | 146° |
| 2026-05-05 22:12 | 18.95170 | -85.90797 | 34956 ft | 467 kts | 146° |
| 2026-05-05 22:13 | 18.89721 | -85.87057 | 34958 ft | 467 kts | 146° |
| 2026-05-05 22:13 | 18.84272 | -85.83319 | 34955 ft | 467 kts | 146° |
| 2026-05-05 22:14 | 18.78822 | -85.79584 | 34951 ft | 467 kts | 146° |
| 2026-05-05 22:14 | 18.73374 | -85.75853 | 34952 ft | 467 kts | 146° |
| 2026-05-05 22:15 | 18.67925 | -85.72125 | 34957 ft | 467 kts | 146° |
| 2026-05-05 22:15 | 18.62478 | -85.68401 | 34957 ft | 467 kts | 146° |
| 2026-05-05 22:16 | 18.57027 | -85.64676 | 34954 ft | 467 kts | 147° |
| 2026-05-05 22:16 | 18.51576 | -85.60955 | 34954 ft | 467 kts | 147° |
| 2026-05-05 22:17 | 18.46165 | -85.57264 | 34952 ft | 466 kts | 147° |
| 2026-05-05 22:17 | 18.40722 | -85.53553 | 34954 ft | 466 kts | 147° |
| 2026-05-05 22:18 | 18.35273 | -85.49842 | 34956 ft | 466 kts | 147° |
| 2026-05-05 22:18 | 18.30114 | -85.46330 | 34952 ft | 466 kts | 147° |
| 2026-05-05 22:19 | 18.24667 | -85.42626 | 34951 ft | 466 kts | 147° |
| 2026-05-05 22:19 | 18.19221 | -85.38925 | 34952 ft | 466 kts | 147° |
| 2026-05-05 22:20 | 18.13774 | -85.35226 | 34955 ft | 466 kts | 147° |
| 2026-05-05 22:20 | 18.08324 | -85.31528 | 34955 ft | 466 kts | 147° |
| 2026-05-05 22:21 | 18.02876 | -85.27833 | 34948 ft | 466 kts | 147° |
| 2026-05-05 22:21 | 17.97420 | -85.24136 | 34949 ft | 467 kts | 147° |
| 2026-05-05 22:22 | 17.91965 | -85.20443 | 34950 ft | 467 kts | 147° |
| 2026-05-05 22:22 | 17.86502 | -85.16747 | 34951 ft | 467 kts | 147° |
| 2026-05-05 22:23 | 17.81038 | -85.13053 | 34946 ft | 467 kts | 147° |
| 2026-05-05 22:23 | 17.75567 | -85.09357 | 34948 ft | 468 kts | 147° |
| 2026-05-05 22:24 | 17.70097 | -85.05665 | 34950 ft | 468 kts | 147° |
| 2026-05-05 22:24 | 17.64622 | -85.01971 | 34950 ft | 468 kts | 147° |
| 2026-05-05 22:25 | 17.59183 | -84.98306 | 34949 ft | 468 kts | 147° |
| 2026-05-05 22:25 | 17.53704 | -84.94615 | 34949 ft | 468 kts | 147° |
| 2026-05-05 22:26 | 17.48221 | -84.90924 | 34947 ft | 468 kts | 147° |
| 2026-05-05 22:26 | 17.42744 | -84.87240 | 34951 ft | 468 kts | 147° |
| 2026-05-05 22:27 | 17.38151 | -84.84153 | 34947 ft | 468 kts | 147° |
| 2026-05-05 22:27 | 17.32675 | -84.80475 | 34947 ft | 468 kts | 147° |
| 2026-05-05 22:28 | 17.27235 | -84.76823 | 34947 ft | 468 kts | 148° |
| 2026-05-05 22:28 | 17.21758 | -84.73150 | 34944 ft | 467 kts | 148° |
| 2026-05-05 22:29 | 17.16286 | -84.69482 | 34947 ft | 467 kts | 148° |
| 2026-05-05 22:29 | 17.10817 | -84.65819 | 34946 ft | 467 kts | 148° |
| 2026-05-05 22:30 | 17.05344 | -84.62156 | 34946 ft | 467 kts | 148° |
| 2026-05-05 22:30 | 17.00023 | -84.58597 | 34946 ft | 466 kts | 148° |
| 2026-05-05 22:31 | 16.94557 | -84.54943 | 34945 ft | 466 kts | 148° |
| 2026-05-05 22:31 | 16.89260 | -84.51405 | 34944 ft | 466 kts | 148° |
| 2026-05-05 22:32 | 16.83797 | -84.47759 | 34941 ft | 466 kts | 148° |
| 2026-05-05 22:32 | 16.78334 | -84.44115 | 34944 ft | 466 kts | 148° |
| 2026-05-05 22:33 | 16.72876 | -84.40477 | 34941 ft | 466 kts | 148° |
| 2026-05-05 22:33 | 16.67637 | -84.36986 | 34941 ft | 465 kts | 148° |
| 2026-05-05 22:34 | 16.62176 | -84.33351 | 34941 ft | 465 kts | 148° |
| 2026-05-05 22:34 | 16.56723 | -84.29723 | 34942 ft | 465 kts | 148° |
| 2026-05-05 22:35 | 16.51270 | -84.26098 | 34939 ft | 465 kts | 148° |
| 2026-05-05 22:35 | 16.45821 | -84.22477 | 34941 ft | 464 kts | 148° |
| 2026-05-05 22:36 | 16.40375 | -84.18861 | 34940 ft | 464 kts | 148° |
| 2026-05-05 22:36 | 16.34933 | -84.15248 | 34938 ft | 464 kts | 148° |
| 2026-05-05 22:37 | 16.29495 | -84.11639 | 34940 ft | 463 kts | 148° |
| 2026-05-05 22:37 | 16.24058 | -84.08032 | 34938 ft | 463 kts | 148° |
| 2026-05-05 22:38 | 16.18622 | -84.04428 | 34936 ft | 463 kts | 148° |
| 2026-05-05 22:38 | 16.13192 | -84.00831 | 34937 ft | 463 kts | 148° |
| 2026-05-05 22:39 | 16.07768 | -83.97239 | 34936 ft | 462 kts | 148° |
| 2026-05-05 22:39 | 16.02376 | -83.93672 | 34938 ft | 462 kts | 148° |
| 2026-05-05 22:40 | 15.96956 | -83.90088 | 34936 ft | 462 kts | 149° |
| 2026-05-05 22:40 | 15.91532 | -83.86504 | 34937 ft | 462 kts | 149° |
| 2026-05-05 22:41 | 15.86114 | -83.82925 | 34934 ft | 462 kts | 149° |
| 2026-05-05 22:41 | 15.80729 | -83.79372 | 34933 ft | 462 kts | 149° |
| 2026-05-05 22:42 | 15.75308 | -83.75796 | 34935 ft | 461 kts | 149° |
| 2026-05-05 22:42 | 15.69888 | -83.72224 | 34930 ft | 461 kts | 149° |
| 2026-05-05 22:43 | 15.64471 | -83.68656 | 34933 ft | 461 kts | 149° |
| 2026-05-05 22:43 | 15.59050 | -83.65088 | 34934 ft | 461 kts | 149° |
| 2026-05-05 22:44 | 15.53627 | -83.61520 | 34933 ft | 461 kts | 149° |
| 2026-05-05 22:44 | 15.48206 | -83.57956 | 34933 ft | 461 kts | 149° |
| 2026-05-05 22:45 | 15.42784 | -83.54394 | 34928 ft | 461 kts | 149° |
| 2026-05-05 22:45 | 15.37400 | -83.50859 | 34929 ft | 461 kts | 149° |
| 2026-05-05 22:46 | 15.31984 | -83.47305 | 34928 ft | 461 kts | 149° |
| 2026-05-05 22:46 | 15.26567 | -83.43752 | 34930 ft | 461 kts | 149° |
| 2026-05-05 22:47 | 15.21170 | -83.40215 | 34925 ft | 461 kts | 149° |
| 2026-05-05 22:47 | 15.15753 | -83.36667 | 34929 ft | 460 kts | 149° |
| 2026-05-05 22:48 | 15.10344 | -83.33127 | 34926 ft | 460 kts | 149° |
| 2026-05-05 22:48 | 15.04931 | -83.29585 | 34925 ft | 460 kts | 149° |
| 2026-05-05 22:49 | 14.99522 | -83.26049 | 34929 ft | 460 kts | 149° |
| 2026-05-05 22:49 | 14.94121 | -83.22520 | 34924 ft | 459 kts | 149° |
| 2026-05-05 22:50 | 14.88723 | -83.18995 | 34926 ft | 458 kts | 149° |
| 2026-05-05 22:50 | 14.83336 | -83.15480 | 34927 ft | 458 kts | 149° |
| 2026-05-05 22:51 | 14.77951 | -83.11968 | 34925 ft | 457 kts | 149° |
| 2026-05-05 22:51 | 14.72575 | -83.08464 | 34925 ft | 457 kts | 149° |
| 2026-05-05 22:52 | 14.67201 | -83.04962 | 34926 ft | 457 kts | 149° |
| 2026-05-05 22:52 | 14.61827 | -83.01464 | 34928 ft | 457 kts | 149° |
| 2026-05-05 22:53 | 14.56451 | -82.97965 | 34929 ft | 457 kts | 149° |
| 2026-05-05 22:53 | 14.51076 | -82.94471 | 34932 ft | 457 kts | 149° |
| 2026-05-05 22:54 | 14.45698 | -82.90975 | 34930 ft | 457 kts | 149° |
| 2026-05-05 22:54 | 14.40315 | -82.87479 | 34933 ft | 457 kts | 149° |
| 2026-05-05 22:55 | 14.34931 | -82.83983 | 34932 ft | 457 kts | 149° |
| 2026-05-05 22:55 | 14.29541 | -82.80486 | 34929 ft | 457 kts | 149° |
| 2026-05-05 22:56 | 14.24158 | -82.76995 | 34930 ft | 457 kts | 149° |
| 2026-05-05 22:56 | 14.18769 | -82.73503 | 34928 ft | 457 kts | 149° |
| 2026-05-05 22:57 | 14.13387 | -82.70017 | 34928 ft | 457 kts | 149° |
| 2026-05-05 22:57 | 14.08047 | -82.66560 | 34929 ft | 456 kts | 149° |
| 2026-05-05 22:58 | 14.02672 | -82.63082 | 34930 ft | 456 kts | 149° |
| 2026-05-05 22:58 | 13.97305 | -82.59611 | 34926 ft | 455 kts | 149° |
| 2026-05-05 22:59 | 13.91945 | -82.56146 | 34930 ft | 455 kts | 149° |
| 2026-05-05 22:59 | 13.86711 | -82.52768 | 34927 ft | 454 kts | 149° |
| 2026-05-05 23:00 | 13.78682 | -82.47597 | 34927 ft | 454 kts | 149° |
| 2026-05-05 23:00 | 13.73341 | -82.44158 | 34927 ft | 453 kts | 149° |
| 2026-05-05 23:01 | 13.67997 | -82.40718 | 34927 ft | 453 kts | 149° |
| 2026-05-05 23:01 | 13.62661 | -82.37285 | 34929 ft | 452 kts | 149° |
| 2026-05-05 23:02 | 13.57357 | -82.33875 | 34927 ft | 452 kts | 149° |
| 2026-05-05 23:02 | 13.51992 | -82.30427 | 34928 ft | 452 kts | 149° |
| 2026-05-05 23:03 | 13.46696 | -82.27025 | 34926 ft | 452 kts | 149° |
| 2026-05-05 23:03 | 13.41366 | -82.23603 | 34920 ft | 451 kts | 149° |
| 2026-05-05 23:04 | 13.36039 | -82.20185 | 34928 ft | 451 kts | 149° |
| 2026-05-05 23:04 | 13.30772 | -82.16807 | 34928 ft | 451 kts | 149° |
| 2026-05-05 23:05 | 13.25452 | -82.13399 | 34926 ft | 451 kts | 149° |
| 2026-05-05 23:05 | 13.20135 | -82.09991 | 34926 ft | 451 kts | 149° |
| 2026-05-05 23:06 | 13.14840 | -82.06601 | 34924 ft | 451 kts | 150° |
| 2026-05-05 23:06 | 13.09508 | -82.03189 | 34923 ft | 451 kts | 149° |
| 2026-05-05 23:07 | 13.04186 | -81.99784 | 34920 ft | 451 kts | 149° |
| 2026-05-05 23:07 | 12.98870 | -81.96385 | 34921 ft | 450 kts | 150° |
| 2026-05-05 23:08 | 12.93558 | -81.92991 | 34923 ft | 450 kts | 149° |
| 2026-05-05 23:08 | 12.88243 | -81.89596 | 34918 ft | 449 kts | 149° |
| 2026-05-05 23:09 | 12.82934 | -81.86207 | 34917 ft | 449 kts | 150° |
| 2026-05-05 23:09 | 12.77669 | -81.82848 | 34917 ft | 449 kts | 150° |
| 2026-05-05 23:10 | 12.72369 | -81.79467 | 34915 ft | 448 kts | 150° |
| 2026-05-05 23:10 | 12.67080 | -81.76096 | 34913 ft | 448 kts | 150° |
| 2026-05-05 23:11 | 12.62573 | -81.73221 | 34910 ft | 447 kts | 149° |
| 2026-05-05 23:11 | 12.57286 | -81.69865 | 34913 ft | 447 kts | 150° |
| 2026-05-05 23:12 | 12.51897 | -81.66703 | 34912 ft | 446 kts | 152° |
| 2026-05-05 23:12 | 12.46464 | -81.63623 | 34913 ft | 446 kts | 153° |
| 2026-05-05 23:13 | 12.41040 | -81.60527 | 34915 ft | 446 kts | 152° |
| 2026-05-05 23:13 | 12.35634 | -81.57418 | 34918 ft | 446 kts | 152° |
| 2026-05-05 23:14 | 12.30263 | -81.54320 | 34914 ft | 446 kts | 152° |
| 2026-05-05 23:14 | 12.24857 | -81.51201 | 34914 ft | 446 kts | 152° |
| 2026-05-05 23:15 | 12.19449 | -81.48084 | 34916 ft | 446 kts | 152° |
| 2026-05-05 23:15 | 12.14043 | -81.44971 | 34916 ft | 446 kts | 152° |
| 2026-05-05 23:16 | 12.09545 | -81.42381 | 34916 ft | 446 kts | 152° |
| 2026-05-05 23:16 | 12.04144 | -81.39271 | 34916 ft | 446 kts | 152° |
| 2026-05-05 23:17 | 11.98730 | -81.36158 | 34911 ft | 446 kts | 152° |
| 2026-05-05 23:17 | 11.93327 | -81.33051 | 34915 ft | 446 kts | 152° |
| 2026-05-05 23:18 | 11.87913 | -81.29939 | 34915 ft | 446 kts | 152° |
| 2026-05-05 23:18 | 11.82501 | -81.26830 | 34916 ft | 446 kts | 152° |
| 2026-05-05 23:19 | 11.77088 | -81.23722 | 34915 ft | 446 kts | 152° |
| 2026-05-05 23:19 | 11.71675 | -81.20616 | 34915 ft | 447 kts | 152° |
| 2026-05-05 23:20 | 11.66255 | -81.17506 | 34912 ft | 447 kts | 152° |
| 2026-05-05 23:20 | 11.60834 | -81.14398 | 34911 ft | 447 kts | 152° |
| 2026-05-05 23:21 | 11.55411 | -81.11290 | 34914 ft | 447 kts | 152° |
| 2026-05-05 23:21 | 11.50014 | -81.08198 | 34914 ft | 447 kts | 151° |
| 2026-05-05 23:22 | 11.44583 | -81.05088 | 34912 ft | 448 kts | 151° |
| 2026-05-05 23:22 | 11.39155 | -81.01981 | 34913 ft | 448 kts | 151° |
| 2026-05-05 23:23 | 11.33716 | -80.98869 | 34908 ft | 448 kts | 151° |
| 2026-05-05 23:23 | 11.28286 | -80.95764 | 34910 ft | 447 kts | 151° |
| 2026-05-05 23:24 | 11.23306 | -80.92917 | 34911 ft | 447 kts | 151° |
| 2026-05-05 23:24 | 11.17879 | -80.89816 | 34906 ft | 447 kts | 151° |
| 2026-05-05 23:25 | 11.12443 | -80.86711 | 34907 ft | 449 kts | 151° |
| 2026-05-05 23:25 | 11.06969 | -80.83586 | 34922 ft | 454 kts | 151° |
| 2026-05-05 23:26 | 11.01427 | -80.80424 | 34920 ft | 457 kts | 151° |
| 2026-05-05 23:26 | 10.95871 | -80.77254 | 34908 ft | 458 kts | 150° |
| 2026-05-05 23:27 | 10.90316 | -80.74086 | 34906 ft | 456 kts | 150° |
| 2026-05-05 23:27 | 10.84865 | -80.70979 | 34896 ft | 448 kts | 150° |
| 2026-05-05 23:28 | 10.79420 | -80.67877 | 34913 ft | 448 kts | 150° |
| 2026-05-05 23:28 | 10.73969 | -80.64772 | 34908 ft | 448 kts | 150° |
| 2026-05-05 23:29 | 10.69072 | -80.61650 | 34903 ft | 448 kts | 140° |
| 2026-05-05 23:29 | 10.64854 | -80.57004 | 34919 ft | 448 kts | 127° |
| 2026-05-05 23:30 | 10.61162 | -80.51891 | 34906 ft | 449 kts | 126° |
| 2026-05-05 23:30 | 10.57470 | -80.46765 | 34904 ft | 449 kts | 126° |
| 2026-05-05 23:31 | 10.54171 | -80.42241 | 34902 ft | 450 kts | 127° |
| 2026-05-05 23:31 | 10.50509 | -80.37255 | 34902 ft | 450 kts | 127° |
| 2026-05-05 23:32 | 10.46778 | -80.32188 | 34907 ft | 450 kts | 127° |
| 2026-05-05 23:32 | 10.43360 | -80.27546 | 34900 ft | 451 kts | 127° |
| 2026-05-05 23:33 | 10.39600 | -80.22441 | 34904 ft | 451 kts | 127° |
| 2026-05-05 23:33 | 10.35845 | -80.17344 | 34905 ft | 451 kts | 127° |
| 2026-05-05 23:34 | 10.32044 | -80.12187 | 34913 ft | 460 kts | 127° |
| 2026-05-05 23:34 | 10.28174 | -80.06939 | 34703 ft | 466 kts | 127° |
| 2026-05-05 23:35 | 10.26231 | -80.04304 | 34188 ft | 465 kts | 126° |
| 2026-05-05 23:35 | 10.24289 | -80.01673 | 33498 ft | 466 kts | 126° |
| 2026-05-05 23:35 | 10.22342 | -79.99034 | 32779 ft | 467 kts | 126° |
| 2026-05-05 23:35 | 10.20390 | -79.96389 | 32050 ft | 469 kts | 126° |
| 2026-05-05 23:36 | 10.18425 | -79.93728 | 31298 ft | 471 kts | 126° |
| 2026-05-05 23:36 | 10.16458 | -79.91064 | 30505 ft | 474 kts | 126° |
| 2026-05-05 23:36 | 10.14485 | -79.88393 | 29956 ft | 471 kts | 126° |
| 2026-05-05 23:36 | 10.12525 | -79.85740 | 29291 ft | 468 kts | 126° |
| 2026-05-05 23:37 | 10.10579 | -79.83108 | 28691 ft | 464 kts | 126° |
| 2026-05-05 23:37 | 10.08653 | -79.80503 | 28112 ft | 459 kts | 126° |
| 2026-05-05 23:37 | 10.06745 | -79.77923 | 27548 ft | 455 kts | 126° |
| 2026-05-05 23:37 | 10.04880 | -79.75400 | 26995 ft | 451 kts | 126° |
| 2026-05-05 23:38 | 10.03004 | -79.72864 | 26452 ft | 447 kts | 126° |
| 2026-05-05 23:38 | 10.01148 | -79.70355 | 25908 ft | 443 kts | 126° |
| 2026-05-05 23:38 | 9.99359 | -79.67937 | 25352 ft | 441 kts | 126° |
| 2026-05-05 23:38 | 9.97509 | -79.65438 | 24790 ft | 439 kts | 126° |
| 2026-05-05 23:39 | 9.95691 | -79.62981 | 24504 ft | 429 kts | 126° |
| 2026-05-05 23:39 | 9.93918 | -79.60586 | 24270 ft | 419 kts | 126° |
| 2026-05-05 23:39 | 9.92190 | -79.58253 | 24101 ft | 407 kts | 126° |
| 2026-05-05 23:39 | 9.90509 | -79.55982 | 23929 ft | 397 kts | 125° |
| 2026-05-05 23:40 | 9.88871 | -79.53772 | 23758 ft | 387 kts | 125° |
| 2026-05-05 23:40 | 9.87261 | -79.51612 | 23602 ft | 379 kts | 128° |
| 2026-05-05 23:40 | 9.85387 | -79.49831 | 23354 ft | 375 kts | 146° |
| 2026-05-05 23:40 | 9.83955 | -79.49057 | 23083 ft | 375 kts | 154° |
| 2026-05-05 23:41 | 9.83538 | -79.48859 | 23033 ft | 374 kts | 152° |
| 2026-05-05 23:41 | 9.82861 | -79.48502 | 22921 ft | 372 kts | 147° |
| 2026-05-05 23:41 | 9.82431 | -79.48230 | 22822 ft | 371 kts | 149° |
| 2026-05-05 23:41 | 9.81936 | -79.47952 | 22703 ft | 371 kts | 153° |
| 2026-05-05 23:42 | 9.81698 | -79.47837 | 22637 ft | 372 kts | 155° |
| 2026-05-05 23:42 | 9.81415 | -79.47707 | 22560 ft | 373 kts | 153° |
| 2026-05-05 23:42 | 9.80867 | -79.47451 | 22435 ft | 373 kts | 159° |
| 2026-05-05 23:42 | 9.79424 | -79.47192 | 22213 ft | 371 kts | 180° |
| 2026-05-05 23:43 | 9.78568 | -79.47223 | 22452 ft | 357 kts | 181° |
| 2026-05-05 23:43 | 9.76131 | -79.47084 | 21818 ft | 359 kts | 159° |
| 2026-05-05 23:43 | 9.74006 | -79.45877 | 21624 ft | 346 kts | 142° |
| 2026-05-05 23:43 | 9.72033 | -79.44465 | 21202 ft | 347 kts | 144° |
| 2026-05-05 23:44 | 9.69987 | -79.43179 | 20863 ft | 345 kts | 148° |
| 2026-05-05 23:44 | 9.67870 | -79.42027 | 20512 ft | 344 kts | 151° |
| 2026-05-05 23:44 | 9.65716 | -79.40971 | 20167 ft | 343 kts | 153° |
| 2026-05-05 23:44 | 9.63551 | -79.39970 | 19818 ft | 342 kts | 154° |
| 2026-05-05 23:45 | 9.61409 | -79.39002 | 19483 ft | 341 kts | 154° |
| 2026-05-05 23:45 | 9.59244 | -79.38027 | 19124 ft | 340 kts | 154° |
| 2026-05-05 23:45 | 9.57108 | -79.37025 | 18849 ft | 335 kts | 149° |
| 2026-05-05 23:45 | 9.55167 | -79.35765 | 18627 ft | 329 kts | 142° |
| 2026-05-05 23:46 | 9.53340 | -79.34383 | 18409 ft | 326 kts | 140° |
| 2026-05-05 23:46 | 9.51553 | -79.32988 | 18144 ft | 323 kts | 140° |
| 2026-05-05 23:46 | 9.49772 | -79.31605 | 17791 ft | 321 kts | 140° |
| 2026-05-05 23:46 | 9.47988 | -79.30237 | 17430 ft | 320 kts | 141° |
| 2026-05-05 23:47 | 9.46207 | -79.28886 | 17086 ft | 320 kts | 141° |
| 2026-05-05 23:47 | 9.44427 | -79.27546 | 16718 ft | 319 kts | 141° |
| 2026-05-05 23:47 | 9.42641 | -79.26208 | 16359 ft | 319 kts | 141° |
| 2026-05-05 23:47 | 9.40856 | -79.24873 | 15985 ft | 319 kts | 141° |
| 2026-05-05 23:48 | 9.39090 | -79.23556 | 15620 ft | 319 kts | 141° |
| 2026-05-05 23:48 | 9.37299 | -79.22220 | 15240 ft | 320 kts | 141° |
| 2026-05-05 23:48 | 9.35501 | -79.20880 | 14855 ft | 321 kts | 141° |
| 2026-05-05 23:48 | 9.33703 | -79.19539 | 14473 ft | 321 kts | 141° |
| 2026-05-05 23:49 | 9.31907 | -79.18201 | 14135 ft | 321 kts | 141° |
| 2026-05-05 23:49 | 9.30104 | -79.16858 | 13779 ft | 321 kts | 141° |
| 2026-05-05 23:49 | 9.28272 | -79.15570 | 13397 ft | 322 kts | 150° |
| 2026-05-05 23:49 | 9.26119 | -79.14932 | 13036 ft | 325 kts | 174° |
| 2026-05-05 23:50 | 9.23876 | -79.15204 | 12648 ft | 328 kts | 197° |
| 2026-05-05 23:50 | 9.21847 | -79.16269 | 12249 ft | 329 kts | 211° |
| 2026-05-05 23:50 | 9.19929 | -79.17549 | 11832 ft | 331 kts | 213° |
| 2026-05-05 23:50 | 9.18028 | -79.18857 | 11423 ft | 331 kts | 213° |
| 2026-05-05 23:51 | 9.16116 | -79.20171 | 11010 ft | 332 kts | 213° |
| 2026-05-05 23:51 | 9.14198 | -79.21477 | 10598 ft | 332 kts | 213° |
| 2026-05-05 23:51 | 9.13021 | -79.22273 | 10335 ft | 333 kts | 213° |
| 2026-05-05 23:51 | 9.11137 | -79.23542 | 9939 ft | 333 kts | 213° |
| 2026-05-05 23:52 | 9.09242 | -79.24814 | 9914 ft | 319 kts | 213° |
| 2026-05-05 23:52 | 9.07426 | -79.26031 | 9857 ft | 307 kts | 212° |
| 2026-05-05 23:52 | 9.05673 | -79.27204 | 9787 ft | 297 kts | 213° |
| 2026-05-05 23:52 | 9.03992 | -79.28327 | 9627 ft | 290 kts | 213° |
| 2026-05-05 23:53 | 9.02304 | -79.29452 | 9326 ft | 289 kts | 212° |
| 2026-05-05 23:53 | 9.00568 | -79.30476 | 9011 ft | 289 kts | 208° |
| 2026-05-05 23:53 | 8.98801 | -79.31431 | 8726 ft | 287 kts | 207° |
| 2026-05-05 23:53 | 8.97041 | -79.32373 | 8444 ft | 286 kts | 207° |
| 2026-05-05 23:54 | 8.95288 | -79.33316 | 8145 ft | 285 kts | 207° |
| 2026-05-05 23:54 | 8.93545 | -79.34263 | 7866 ft | 284 kts | 208° |
| 2026-05-05 23:54 | 8.91813 | -79.35209 | 7593 ft | 282 kts | 208° |
| 2026-05-05 23:54 | 8.90087 | -79.36153 | 7310 ft | 281 kts | 208° |
| 2026-05-05 23:55 | 8.88371 | -79.37094 | 7035 ft | 280 kts | 208° |
| 2026-05-05 23:55 | 8.86740 | -79.38115 | 6749 ft | 279 kts | 223° |
| 2026-05-05 23:55 | 8.85659 | -79.39734 | 6571 ft | 272 kts | 252° |
| 2026-05-05 23:55 | 8.85436 | -79.41558 | 6445 ft | 262 kts | 277° |
| 2026-05-05 23:56 | 8.85937 | -79.43292 | 6290 ft | 252 kts | 300° |
| 2026-05-05 23:56 | 8.86811 | -79.44761 | 6240 ft | 236 kts | 304° |
| 2026-05-05 23:56 | 8.87660 | -79.46110 | 6165 ft | 221 kts | 307° |
| 2026-05-05 23:56 | 8.88768 | -79.47070 | 6038 ft | 203 kts | 340° |
| 2026-05-05 23:57 | 8.90090 | -79.47296 | 5922 ft | 188 kts | 5° |
| 2026-05-05 23:57 | 8.91321 | -79.46960 | 5663 ft | 183 kts | 27° |
| 2026-05-05 23:57 | 8.92426 | -79.46326 | 5368 ft | 182 kts | 29° |
| 2026-05-05 23:57 | 8.93542 | -79.45687 | 4833 ft | 193 kts | 29° |
| 2026-05-05 23:58 | 8.94801 | -79.44965 | 4043 ft | 213 kts | 29° |
| 2026-05-05 23:58 | 8.96097 | -79.44209 | 3416 ft | 219 kts | 29° |
| 2026-05-05 23:58 | 8.97419 | -79.43463 | 2976 ft | 214 kts | 27° |
| 2026-05-05 23:58 | 8.98720 | -79.42801 | 2506 ft | 210 kts | 25° |
| 2026-05-05 23:59 | 9.00024 | -79.42059 | 1707 ft | 218 kts | 33° |
| 2026-05-05 23:59 | 9.01252 | -79.41221 | 1304 ft | 205 kts | 29° |
| 2026-05-05 23:59 | 9.02524 | -79.40567 | 721 ft | 205 kts | 25° |
| 2026-05-05 23:59 | 9.03724 | -79.39852 | 324 ft | 195 kts | 27° |
| 2026-05-06 00:00 | 9.04865 | -79.39196 | 84 ft | 182 kts | 26° |
| 2026-05-06 00:00 | 9.05887 | -79.38622 | 43 ft | 143 kts | 28° |
| 2026-05-06 00:00 | 9.06573 | -79.38237 | 42 ft | 82 kts | 31° |
| 2026-05-06 00:00 | 9.06885 | -79.38054 | 43 ft | 23 kts | 28° |
| 2026-05-06 00:01 | 9.07036 | -79.37969 | 42 ft | 23 kts | 30° |
| 2026-05-06 00:01 | 9.07120 | -79.37924 | 43 ft | 8 kts | 13° |
| 2026-05-06 00:01 | 9.07166 | -79.37948 | 41 ft | 8 kts | 306° |
| 2026-05-06 00:01 | 9.07194 | -79.37994 | 44 ft | 8 kts | 300° |
| 2026-05-06 00:02 | 9.07206 | -79.38046 | 44 ft | 8 kts | 258° |
| 2026-05-06 00:02 | 9.07167 | -79.38086 | 45 ft | 8 kts | 216° |
| 2026-05-06 00:02 | 9.07119 | -79.38113 | 43 ft | 8 kts | 200° |
| 2026-05-06 00:02 | 9.07067 | -79.38140 | 45 ft | 10 kts | 209° |
| 2026-05-06 00:03 | 9.07007 | -79.38175 | 45 ft | 10 kts | 209° |
| 2026-05-06 00:03 | 9.06967 | -79.38199 | 44 ft | 10 kts | 213° |
| 2026-05-06 00:03 | 9.06904 | -79.38266 | 45 ft | 11 kts | 236° |
| 2026-05-06 00:03 | 9.06875 | -79.38309 | 46 ft | 11 kts | 236° |
| 2026-05-06 00:04 | 9.06848 | -79.38376 | 47 ft | 10 kts | 260° |
| 2026-05-06 00:04 | 9.06891 | -79.38426 | 48 ft | 9 kts | 312° |
| 2026-05-06 00:04 | 9.06897 | -79.38476 | 53 ft | 6 kts | 265° |
| 2026-05-06 00:04 | 9.06889 | -79.38503 | 49 ft | 1 kts | 216° |
| 2026-05-06 00:05 | 9.06852 | -79.38503 | 50 ft | 3 kts | 191° |
| 2026-05-06 00:05 | 9.06849 | -79.38503 | 50 ft | 0 kts | 191° |